Aeroporto :
LOGIN :

Iscrizione | Disclaimer

   EN    FR    IT 

 










Sommario :    VFR   VFR Marginale   IFR   IFR Intensivo   IFR Molto Intensivo
Visibilità : 
Base nubi : 
>= 8 km
>= 3000ft
5 / 8 km
1000 / 3000 ft
1500m / 5 km
500 / 1000 ft
800 / 1500m
200 / 500 ft
< 800m
< 200 ft
Simboli :   Temporali  Nebbia  Neve Forte  Precipitazioni Forti  Vento > 20 kt
SIGMETs :   Varie  Temporali  Ghiacco  Turbolenza  Onda orograficha  Ceneri Vulcaniche






- Altitudine del aeroporto : 1161 ft
- Codice IATA : RJL


LELO - Logroño-Agoncillo

ULTIMO METAR :
  • 171200Z 32006KT 260V030 6000 FEW010 BKN023 11/08 Q1028

METARs OBSOLETI :
  • 171130Z 26003KT 230V290 8000 -RA FEW010 OVC023 11/10 Q1027
  • 171100Z 28003KT 250V320 2200 -RA FEW007 OVC017 10/10 Q1027
  • 171030Z 27003KT 220V340 2000 -RA FEW008 SCT013 OVC020 10/10 Q1027
  • 171000Z 26004KT 2500 -RA FEW016 BKN024 BKN045 10/09 Q1026
  • 170930Z VRB01KT 4500 -RA FEW028 BKN047 10/09 Q1026
  • 170900Z 05003KT 9000 BKN050 09/08 Q1025

TAF TAF LELO
Valido dal 17 a 12 ore il 17 a 21 ore UTC


171100Z 1712/1721 27010KT 9999 BKN025
PROB40
TEMPO 1712/1717 3000 RA FEW008 BKN012



MetMap, La meteo Aeronautica in un colpo d'occhio ! - Copyright ORBIFLY Dicembre 2007 - Disclaimer

ORBIFLY MET'MAP TEAM :

Programmazione e sviluppo : Alexandra Zaïnal
Concezione : Baudouin d'Aumeries
Aiuto per la programmazione : Marc-Olivier Méhu
Supporto tecnico e logistico : Manuel Goepfert
Aiuto per la traduzione : Arnaldo La Scala

Contatto : metmap@orbifly.com




FONTI E CREDITI :

   NOAA